Terminal Aerodrome Forecast
Issued by NWS Louisville, KY

Home | Current Version | Previous Version | Text Only | Print | Product List | Glossary On
Versions: 1 2 3 4 5 6 7 8 9 10 11 12 13 14 15 16
247
FTUS43 KLMK 251720
TAFLEX
TAF
KLEX 251720Z 2518/2618 15003KT P6SM BKN025
     FM252000 15004KT P6SM SCT035
     FM260000 13004KT P6SM FEW250=

USA.gov is the U.S. government's official web portal to all federal, state and local government web resources and services.